sensor_id;sensor_type;location;lat;lon;timestamp;P1;durP1;ratioP1;P2;durP2;ratioP2
2001;SDS011;1003;48.002;7.788;2023-07-31T00:02:07;2.50;;;1.87;;
2001;SDS011;1003;48.002;7.788;2023-07-31T00:04:34;2.33;;;2.07;;
2001;SDS011;1003;48.002;7.788;2023-07-31T00:07:01;3.30;;;2.40;;
2001;SDS011;1003;48.002;7.788;2023-07-31T00:09:31;3.40;;;2.30;;
2001;SDS011;1003;48.002;7.788;2023-07-31T00:11:58;3.67;;;2.10;;
2001;SDS011;1003;48.002;7.788;2023-07-31T00:14:26;4.13;;;2.20;;
2001;SDS011;1003;48.002;7.788;2023-07-31T00:16:53;2.40;;;2.03;;
2001;SDS011;1003;48.002;7.788;2023-07-31T00:19:20;3.00;;;1.97;;
2001;SDS011;1003;48.002;7.788;2023-07-31T00:21:47;4.83;;;2.00;;
2001;SDS011;1003;48.002;7.788;2023-07-31T00:24:15;4.43;;;2.00;;
2001;SDS011;1003;48.002;7.788;2023-07-31T00:26:42;2.70;;;2.07;;
2001;SDS011;1003;48.002;7.788;2023-07-31T00:29:09;3.20;;;2.20;;
2001;SDS011;1003;48.002;7.788;2023-07-31T00:31:37;3.27;;;1.90;;
2001;SDS011;1003;48.002;7.788;2023-07-31T00:34:05;2.93;;;2.17;;
2001;SDS011;1003;48.002;7.788;2023-07-31T00:36:32;3.33;;;2.13;;
2001;SDS011;1003;48.002;7.788;2023-07-31T00:38:59;3.43;;;2.20;;
2001;SDS011;1003;48.002;7.788;2023-07-31T00:41:26;2.57;;;2.20;;
2001;SDS011;1003;48.002;7.788;2023-07-31T00:43:53;3.20;;;2.20;;
2001;SDS011;1003;48.002;7.788;2023-07-31T00:46:20;2.83;;;2.17;;
2001;SDS011;1003;48.002;7.788;2023-07-31T00:48:48;3.27;;;2.00;;
2001;SDS011;1003;48.002;7.788;2023-07-31T00:51:16;2.87;;;2.07;;
2001;SDS011;1003;48.002;7.788;2023-07-31T00:53:43;3.20;;;2.30;;
2001;SDS011;1003;48.002;7.788;2023-07-31T00:56:11;3.23;;;2.30;;
2001;SDS011;1003;48.002;7.788;2023-07-31T00:58:39;2.47;;;2.23;;
2001;SDS011;1003;48.002;7.788;2023-07-31T01:01:06;2.77;;;2.27;;
2001;SDS011;1003;48.002;7.788;2023-07-31T01:03:33;3.00;;;2.20;;
2001;SDS011;1003;48.002;7.788;2023-07-31T01:06:04;4.90;;;2.30;;
2001;SDS011;1003;48.002;7.788;2023-07-31T01:08:42;3.40;;;2.20;;
2001;SDS011;1003;48.002;7.788;2023-07-31T01:11:21;2.93;;;2.30;;
2001;SDS011;1003;48.002;7.788;2023-07-31T01:13:55;5.00;;;2.60;;
2001;SDS011;1003;48.002;7.788;2023-07-31T01:16:22;5.13;;;2.37;;
2001;SDS011;1003;48.002;7.788;2023-07-31T01:18:51;4.53;;;2.40;;
2001;SDS011;1003;48.002;7.788;2023-07-31T01:21:22;3.53;;;2.10;;
2001;SDS011;1003;48.002;7.788;2023-07-31T01:24:41;3.53;;;2.30;;
2001;SDS011;1003;48.002;7.788;2023-07-31T01:27:28;3.23;;;2.30;;
2001;SDS011;1003;48.002;7.788;2023-07-31T01:30:03;3.63;;;2.60;;
2001;SDS011;1003;48.002;7.788;2023-07-31T01:32:39;4.50;;;2.20;;
2001;SDS011;1003;48.002;7.788;2023-07-31T01:35:09;2.93;;;2.27;;
2001;SDS011;1003;48.002;7.788;2023-07-31T01:37:36;2.87;;;2.40;;
2001;SDS011;1003;48.002;7.788;2023-07-31T01:40:04;4.27;;;2.47;;
2001;SDS011;1003;48.002;7.788;2023-07-31T01:42:34;4.67;;;2.57;;
2001;SDS011;1003;48.002;7.788;2023-07-31T01:45:01;4.47;;;2.10;;
2001;SDS011;1003;48.002;7.788;2023-07-31T01:47:28;4.03;;;2.17;;
2001;SDS011;1003;48.002;7.788;2023-07-31T01:49:55;4.03;;;2.27;;
2001;SDS011;1003;48.002;7.788;2023-07-31T01:52:22;4.40;;;2.40;;
2001;SDS011;1003;48.002;7.788;2023-07-31T01:54:49;4.00;;;2.57;;
2001;SDS011;1003;48.002;7.788;2023-07-31T01:57:16;3.03;;;2.20;;
2001;SDS011;1003;48.002;7.788;2023-07-31T01:59:45;4.23;;;2.20;;
2001;SDS011;1003;48.002;7.788;2023-07-31T02:02:12;3.97;;;2.13;;
2001;SDS011;1003;48.002;7.788;2023-07-31T02:04:39;3.17;;;1.90;;
2001;SDS011;1003;48.002;7.788;2023-07-31T02:07:06;5.10;;;2.10;;
2001;SDS011;1003;48.002;7.788;2023-07-31T02:09:33;2.30;;;1.77;;
2001;SDS011;1003;48.002;7.788;2023-07-31T02:12:00;2.53;;;2.00;;
2001;SDS011;1003;48.002;7.788;2023-07-31T02:14:27;3.23;;;2.07;;
2001;SDS011;1003;48.002;7.788;2023-07-31T02:16:56;3.23;;;1.63;;
2001;SDS011;1003;48.002;7.788;2023-07-31T02:19:23;2.70;;;1.87;;
2001;SDS011;1003;48.002;7.788;2023-07-31T02:21:50;2.23;;;1.87;;
2001;SDS011;1003;48.002;7.788;2023-07-31T02:24:17;2.97;;;1.80;;
2001;SDS011;1003;48.002;7.788;2023-07-31T02:26:43;4.80;;;1.93;;
2001;SDS011;1003;48.002;7.788;2023-07-31T02:29:10;2.93;;;1.87;;
2001;SDS011;1003;48.002;7.788;2023-07-31T02:31:37;1.80;;;1.70;;
2001;SDS011;1003;48.002;7.788;2023-07-31T02:34:06;2.37;;;1.90;;
2001;SDS011;1003;48.002;7.788;2023-07-31T02:36:33;4.10;;;1.90;;
2001;SDS011;1003;48.002;7.788;2023-07-31T02:39:00;2.43;;;1.80;;
2001;SDS011;1003;48.002;7.788;2023-07-31T02:41:27;3.90;;;2.00;;
2001;SDS011;1003;48.002;7.788;2023-07-31T02:43:54;2.13;;;1.60;;
2001;SDS011;1003;48.002;7.788;2023-07-31T02:46:21;2.20;;;1.57;;
2001;SDS011;1003;48.002;7.788;2023-07-31T02:48:49;4.70;;;2.03;;
2001;SDS011;1003;48.002;7.788;2023-07-31T02:51:17;3.27;;;1.80;;
2001;SDS011;1003;48.002;7.788;2023-07-31T02:53:46;2.57;;;1.90;;
2001;SDS011;1003;48.002;7.788;2023-07-31T02:56:13;1.60;;;1.40;;
2001;SDS011;1003;48.002;7.788;2023-07-31T02:58:40;2.77;;;1.93;;
2001;SDS011;1003;48.002;7.788;2023-07-31T03:01:07;5.30;;;1.60;;
2001;SDS011;1003;48.002;7.788;2023-07-31T03:03:34;2.63;;;1.80;;
2001;SDS011;1003;48.002;7.788;2023-07-31T03:06:01;3.77;;;1.87;;
2001;SDS011;1003;48.002;7.788;2023-07-31T03:08:30;2.00;;;1.80;;
2001;SDS011;1003;48.002;7.788;2023-07-31T03:10:57;1.97;;;1.50;;
2001;SDS011;1003;48.002;7.788;2023-07-31T03:13:24;2.43;;;1.80;;
2001;SDS011;1003;48.002;7.788;2023-07-31T03:15:51;4.07;;;1.80;;
2001;SDS011;1003;48.002;7.788;2023-07-31T03:18:18;2.97;;;1.73;;
2001;SDS011;1003;48.002;7.788;2023-07-31T03:20:45;2.40;;;1.80;;
2001;SDS011;1003;48.002;7.788;2023-07-31T03:23:12;3.80;;;1.80;;
2001;SDS011;1003;48.002;7.788;2023-07-31T03:25:41;2.80;;;1.90;;
2001;SDS011;1003;48.002;7.788;2023-07-31T03:28:22;1.60;;;1.50;;
2001;SDS011;1003;48.002;7.788;2023-07-31T03:30:49;3.10;;;1.90;;
2001;SDS011;1003;48.002;7.788;2023-07-31T03:33:17;2.60;;;1.70;;
2001;SDS011;1003;48.002;7.788;2023-07-31T03:35:44;5.67;;;2.10;;
2001;SDS011;1003;48.002;7.788;2023-07-31T03:38:11;2.83;;;1.73;;
2001;SDS011;1003;48.002;7.788;2023-07-31T03:40:38;3.93;;;2.63;;
2001;SDS011;1003;48.002;7.788;2023-07-31T03:43:07;2.40;;;1.70;;
2001;SDS011;1003;48.002;7.788;2023-07-31T03:45:34;5.57;;;1.80;;
2001;SDS011;1003;48.002;7.788;2023-07-31T03:48:02;2.97;;;1.57;;
2001;SDS011;1003;48.002;7.788;2023-07-31T03:50:29;3.97;;;1.73;;
2001;SDS011;1003;48.002;7.788;2023-07-31T03:52:56;2.20;;;1.63;;
2001;SDS011;1003;48.002;7.788;2023-07-31T03:55:23;2.63;;;1.60;;
2001;SDS011;1003;48.002;7.788;2023-07-31T03:57:52;3.27;;;1.80;;
2001;SDS011;1003;48.002;7.788;2023-07-31T04:00:19;2.83;;;1.70;;
2001;SDS011;1003;48.002;7.788;2023-07-31T04:02:47;3.37;;;2.00;;
2001;SDS011;1003;48.002;7.788;2023-07-31T04:05:14;3.20;;;1.73;;
2001;SDS011;1003;48.002;7.788;2023-07-31T04:07:41;2.33;;;1.70;;
2001;SDS011;1003;48.002;7.788;2023-07-31T04:10:08;2.87;;;1.40;;
2001;SDS011;1003;48.002;7.788;2023-07-31T04:12:35;2.23;;;1.70;;
2001;SDS011;1003;48.002;7.788;2023-07-31T04:15:04;3.33;;;2.10;;
2001;SDS011;1003;48.002;7.788;2023-07-31T04:17:32;3.37;;;1.67;;
2001;SDS011;1003;48.002;7.788;2023-07-31T04:19:59;4.53;;;1.50;;
2001;SDS011;1003;48.002;7.788;2023-07-31T04:22:27;3.10;;;1.70;;
2001;SDS011;1003;48.002;7.788;2023-07-31T04:24:54;1.97;;;1.40;;
2001;SDS011;1003;48.002;7.788;2023-07-31T04:27:21;3.50;;;1.83;;
2001;SDS011;1003;48.002;7.788;2023-07-31T04:29:48;2.50;;;1.60;;
2001;SDS011;1003;48.002;7.788;2023-07-31T04:32:17;3.93;;;2.00;;
2001;SDS011;1003;48.002;7.788;2023-07-31T04:34:45;2.90;;;1.90;;
2001;SDS011;1003;48.002;7.788;2023-07-31T04:37:12;2.57;;;1.50;;
2001;SDS011;1003;48.002;7.788;2023-07-31T04:39:39;6.60;;;1.73;;
2001;SDS011;1003;48.002;7.788;2023-07-31T04:42:06;2.57;;;1.80;;
2001;SDS011;1003;48.002;7.788;2023-07-31T04:44:33;2.27;;;1.87;;
2001;SDS011;1003;48.002;7.788;2023-07-31T04:47:01;4.20;;;1.87;;
2001;SDS011;1003;48.002;7.788;2023-07-31T04:49:31;3.00;;;1.47;;
2001;SDS011;1003;48.002;7.788;2023-07-31T04:51:58;3.33;;;1.50;;
2001;SDS011;1003;48.002;7.788;2023-07-31T04:54:25;2.10;;;1.77;;
2001;SDS011;1003;48.002;7.788;2023-07-31T04:56:52;5.13;;;2.00;;
2001;SDS011;1003;48.002;7.788;2023-07-31T04:59:19;5.13;;;1.87;;
2001;SDS011;1003;48.002;7.788;2023-07-31T05:01:46;2.50;;;1.60;;
2001;SDS011;1003;48.002;7.788;2023-07-31T05:04:13;2.00;;;1.67;;
2001;SDS011;1003;48.002;7.788;2023-07-31T05:06:43;2.43;;;1.57;;
2001;SDS011;1003;48.002;7.788;2023-07-31T05:09:10;3.97;;;1.57;;
2001;SDS011;1003;48.002;7.788;2023-07-31T05:11:37;4.47;;;1.77;;
2001;SDS011;1003;48.002;7.788;2023-07-31T05:14:05;2.73;;;1.70;;
2001;SDS011;1003;48.002;7.788;2023-07-31T05:16:32;3.27;;;1.50;;
2001;SDS011;1003;48.002;7.788;2023-07-31T05:18:59;2.60;;;1.73;;
2001;SDS011;1003;48.002;7.788;2023-07-31T05:21:26;4.43;;;1.77;;
2001;SDS011;1003;48.002;7.788;2023-07-31T05:23:55;4.50;;;1.60;;
2001;SDS011;1003;48.002;7.788;2023-07-31T05:26:22;2.07;;;1.60;;
2001;SDS011;1003;48.002;7.788;2023-07-31T05:28:49;2.83;;;1.53;;
2001;SDS011;1003;48.002;7.788;2023-07-31T05:31:16;2.67;;;1.60;;
2001;SDS011;1003;48.002;7.788;2023-07-31T05:33:43;3.57;;;1.80;;
2001;SDS011;1003;48.002;7.788;2023-07-31T05:36:10;4.43;;;1.70;;
2001;SDS011;1003;48.002;7.788;2023-07-31T05:38:37;2.50;;;1.60;;
2001;SDS011;1003;48.002;7.788;2023-07-31T05:41:05;2.60;;;1.70;;
2001;SDS011;1003;48.002;7.788;2023-07-31T05:43:32;3.30;;;1.73;;
2001;SDS011;1003;48.002;7.788;2023-07-31T05:45:59;2.77;;;1.60;;
2001;SDS011;1003;48.002;7.788;2023-07-31T05:48:26;1.90;;;1.70;;
2001;SDS011;1003;48.002;7.788;2023-07-31T05:50:53;3.33;;;1.60;;
2001;SDS011;1003;48.002;7.788;2023-07-31T05:53:20;3.40;;;1.67;;
2001;SDS011;1003;48.002;7.788;2023-07-31T05:55:47;3.67;;;1.70;;
2001;SDS011;1003;48.002;7.788;2023-07-31T05:58:15;3.23;;;1.80;;
2001;SDS011;1003;48.002;7.788;2023-07-31T06:00:42;2.97;;;1.97;;
2001;SDS011;1003;48.002;7.788;2023-07-31T06:03:09;2.50;;;1.77;;
2001;SDS011;1003;48.002;7.788;2023-07-31T06:05:36;3.77;;;1.77;;
2001;SDS011;1003;48.002;7.788;2023-07-31T06:08:03;4.67;;;2.00;;
2001;SDS011;1003;48.002;7.788;2023-07-31T06:10:31;3.10;;;1.90;;
2001;SDS011;1003;48.002;7.788;2023-07-31T06:12:58;4.40;;;2.00;;
2001;SDS011;1003;48.002;7.788;2023-07-31T06:15:26;5.43;;;1.90;;
2001;SDS011;1003;48.002;7.788;2023-07-31T06:17:53;2.90;;;1.63;;
2001;SDS011;1003;48.002;7.788;2023-07-31T06:20:20;3.27;;;2.00;;
2001;SDS011;1003;48.002;7.788;2023-07-31T06:22:48;4.73;;;1.87;;
2001;SDS011;1003;48.002;7.788;2023-07-31T06:25:15;3.87;;;2.33;;
2001;SDS011;1003;48.002;7.788;2023-07-31T06:27:42;4.13;;;2.20;;
2001;SDS011;1003;48.002;7.788;2023-07-31T06:30:09;3.23;;;1.83;;
2001;SDS011;1003;48.002;7.788;2023-07-31T06:32:38;4.47;;;1.70;;
2001;SDS011;1003;48.002;7.788;2023-07-31T06:35:06;3.87;;;2.10;;
2001;SDS011;1003;48.002;7.788;2023-07-31T06:37:34;3.60;;;2.10;;
2001;SDS011;1003;48.002;7.788;2023-07-31T06:40:01;4.70;;;1.70;;
2001;SDS011;1003;48.002;7.788;2023-07-31T06:42:30;6.53;;;2.20;;
2001;SDS011;1003;48.002;7.788;2023-07-31T06:44:57;3.03;;;1.97;;
2001;SDS011;1003;48.002;7.788;2023-07-31T06:47:24;2.60;;;1.77;;
2001;SDS011;1003;48.002;7.788;2023-07-31T06:49:52;4.47;;;2.00;;
2001;SDS011;1003;48.002;7.788;2023-07-31T06:52:19;4.90;;;1.70;;
2001;SDS011;1003;48.002;7.788;2023-07-31T06:54:53;2.53;;;1.63;;
2001;SDS011;1003;48.002;7.788;2023-07-31T06:57:29;3.03;;;1.60;;
2001;SDS011;1003;48.002;7.788;2023-07-31T06:59:56;3.50;;;1.80;;
2001;SDS011;1003;48.002;7.788;2023-07-31T07:02:24;2.13;;;1.77;;
2001;SDS011;1003;48.002;7.788;2023-07-31T07:04:53;4.40;;;1.70;;
2001;SDS011;1003;48.002;7.788;2023-07-31T07:07:20;2.70;;;1.60;;
2001;SDS011;1003;48.002;7.788;2023-07-31T07:09:47;3.83;;;1.80;;
2001;SDS011;1003;48.002;7.788;2023-07-31T07:12:14;3.03;;;1.70;;
2001;SDS011;1003;48.002;7.788;2023-07-31T07:14:41;2.87;;;1.60;;
2001;SDS011;1003;48.002;7.788;2023-07-31T07:17:08;1.70;;;1.60;;
2001;SDS011;1003;48.002;7.788;2023-07-31T07:19:35;3.00;;;1.70;;
2001;SDS011;1003;48.002;7.788;2023-07-31T07:22:03;2.93;;;1.77;;
2001;SDS011;1003;48.002;7.788;2023-07-31T07:24:31;3.27;;;1.80;;
2001;SDS011;1003;48.002;7.788;2023-07-31T07:26:58;1.93;;;1.53;;
2001;SDS011;1003;48.002;7.788;2023-07-31T07:29:25;3.03;;;1.77;;
2001;SDS011;1003;48.002;7.788;2023-07-31T07:31:52;3.37;;;1.77;;
2001;SDS011;1003;48.002;7.788;2023-07-31T07:34:19;2.07;;;1.50;;
2001;SDS011;1003;48.002;7.788;2023-07-31T07:36:49;3.77;;;1.87;;
2001;SDS011;1003;48.002;7.788;2023-07-31T07:39:17;2.70;;;1.57;;
2001;SDS011;1003;48.002;7.788;2023-07-31T07:41:45;4.43;;;2.07;;
2001;SDS011;1003;48.002;7.788;2023-07-31T07:44:12;6.00;;;2.80;;
2001;SDS011;1003;48.002;7.788;2023-07-31T07:46:40;2.57;;;1.60;;
2001;SDS011;1003;48.002;7.788;2023-07-31T07:49:07;3.23;;;1.70;;
2001;SDS011;1003;48.002;7.788;2023-07-31T07:51:34;2.63;;;1.80;;
2001;SDS011;1003;48.002;7.788;2023-07-31T07:54:02;2.33;;;1.60;;
2001;SDS011;1003;48.002;7.788;2023-07-31T07:56:30;4.20;;;1.80;;
2001;SDS011;1003;48.002;7.788;2023-07-31T07:58:58;1.73;;;1.50;;
2001;SDS011;1003;48.002;7.788;2023-07-31T08:01:25;2.07;;;1.40;;
2001;SDS011;1003;48.002;7.788;2023-07-31T08:03:52;1.70;;;1.57;;
2001;SDS011;1003;48.002;7.788;2023-07-31T08:06:19;2.80;;;1.67;;
2001;SDS011;1003;48.002;7.788;2023-07-31T08:08:46;3.43;;;1.40;;
2001;SDS011;1003;48.002;7.788;2023-07-31T08:11:13;1.90;;;1.47;;
2001;SDS011;1003;48.002;7.788;2023-07-31T08:13:41;2.67;;;1.67;;
2001;SDS011;1003;48.002;7.788;2023-07-31T08:16:08;3.57;;;1.87;;
2001;SDS011;1003;48.002;7.788;2023-07-31T08:18:35;2.47;;;1.60;;
2001;SDS011;1003;48.002;7.788;2023-07-31T08:21:02;4.73;;;1.70;;
2001;SDS011;1003;48.002;7.788;2023-07-31T08:23:30;2.60;;;1.50;;
2001;SDS011;1003;48.002;7.788;2023-07-31T08:25:57;3.43;;;1.80;;
2001;SDS011;1003;48.002;7.788;2023-07-31T08:28:24;3.40;;;1.60;;
2001;SDS011;1003;48.002;7.788;2023-07-31T08:30:52;3.03;;;1.50;;
2001;SDS011;1003;48.002;7.788;2023-07-31T08:33:19;2.17;;;1.63;;
2001;SDS011;1003;48.002;7.788;2023-07-31T08:35:46;3.80;;;1.70;;
2001;SDS011;1003;48.002;7.788;2023-07-31T08:38:13;2.00;;;1.50;;
2001;SDS011;1003;48.002;7.788;2023-07-31T08:40:41;2.63;;;1.60;;
2001;SDS011;1003;48.002;7.788;2023-07-31T08:43:09;4.50;;;1.80;;
2001;SDS011;1003;48.002;7.788;2023-07-31T08:45:36;2.60;;;1.67;;
2001;SDS011;1003;48.002;7.788;2023-07-31T08:48:06;2.30;;;1.50;;
2001;SDS011;1003;48.002;7.788;2023-07-31T08:50:33;4.60;;;1.83;;
2001;SDS011;1003;48.002;7.788;2023-07-31T08:53:00;2.43;;;1.70;;
2001;SDS011;1003;48.002;7.788;2023-07-31T08:55:27;2.73;;;2.00;;
2001;SDS011;1003;48.002;7.788;2023-07-31T08:57:56;2.77;;;1.50;;
2001;SDS011;1003;48.002;7.788;2023-07-31T09:00:25;2.57;;;1.60;;
2001;SDS011;1003;48.002;7.788;2023-07-31T09:02:54;3.50;;;1.50;;
2001;SDS011;1003;48.002;7.788;2023-07-31T09:05:30;3.23;;;1.63;;
2001;SDS011;1003;48.002;7.788;2023-07-31T09:07:58;2.90;;;1.67;;
2001;SDS011;1003;48.002;7.788;2023-07-31T09:10:30;2.73;;;1.70;;
2001;SDS011;1003;48.002;7.788;2023-07-31T09:12:57;3.03;;;1.90;;
2001;SDS011;1003;48.002;7.788;2023-07-31T09:15:25;2.73;;;1.73;;
2001;SDS011;1003;48.002;7.788;2023-07-31T09:17:58;3.43;;;1.70;;
2001;SDS011;1003;48.002;7.788;2023-07-31T09:20:27;3.73;;;1.80;;
2001;SDS011;1003;48.002;7.788;2023-07-31T09:22:55;1.80;;;1.63;;
2001;SDS011;1003;48.002;7.788;2023-07-31T09:25:30;2.63;;;1.43;;
2001;SDS011;1003;48.002;7.788;2023-07-31T09:27:58;2.93;;;1.67;;
2001;SDS011;1003;48.002;7.788;2023-07-31T09:30:28;2.90;;;2.00;;
2001;SDS011;1003;48.002;7.788;2023-07-31T09:33:00;4.60;;;1.83;;
2001;SDS011;1003;48.002;7.788;2023-07-31T09:35:29;3.47;;;1.90;;
2001;SDS011;1003;48.002;7.788;2023-07-31T09:38:00;2.33;;;1.57;;
2001;SDS011;1003;48.002;7.788;2023-07-31T09:40:30;4.23;;;1.70;;
2001;SDS011;1003;48.002;7.788;2023-07-31T09:43:00;3.17;;;1.73;;
2001;SDS011;1003;48.002;7.788;2023-07-31T09:45:29;2.37;;;1.40;;
2001;SDS011;1003;48.002;7.788;2023-07-31T09:48:01;2.73;;;1.63;;
2001;SDS011;1003;48.002;7.788;2023-07-31T09:50:29;2.90;;;1.70;;
2001;SDS011;1003;48.002;7.788;2023-07-31T09:52:57;3.13;;;1.93;;
2001;SDS011;1003;48.002;7.788;2023-07-31T09:55:25;2.97;;;1.70;;
2001;SDS011;1003;48.002;7.788;2023-07-31T09:57:52;3.93;;;1.90;;
2001;SDS011;1003;48.002;7.788;2023-07-31T10:00:23;3.30;;;1.80;;
2001;SDS011;1003;48.002;7.788;2023-07-31T10:02:53;3.33;;;1.80;;
2001;SDS011;1003;48.002;7.788;2023-07-31T10:05:24;4.33;;;1.97;;
2001;SDS011;1003;48.002;7.788;2023-07-31T10:08:00;4.20;;;1.80;;
2001;SDS011;1003;48.002;7.788;2023-07-31T10:10:28;5.30;;;1.90;;
2001;SDS011;1003;48.002;7.788;2023-07-31T10:12:56;3.07;;;2.00;;
2001;SDS011;1003;48.002;7.788;2023-07-31T10:15:24;3.20;;;2.03;;
2001;SDS011;1003;48.002;7.788;2023-07-31T10:17:52;3.43;;;2.00;;
2001;SDS011;1003;48.002;7.788;2023-07-31T10:20:21;3.13;;;1.90;;
2001;SDS011;1003;48.002;7.788;2023-07-31T10:22:50;2.60;;;1.60;;
2001;SDS011;1003;48.002;7.788;2023-07-31T10:25:18;5.33;;;2.00;;
2001;SDS011;1003;48.002;7.788;2023-07-31T10:27:49;5.33;;;2.10;;
2001;SDS011;1003;48.002;7.788;2023-07-31T10:30:20;2.10;;;1.60;;
2001;SDS011;1003;48.002;7.788;2023-07-31T10:32:50;2.80;;;1.90;;
2001;SDS011;1003;48.002;7.788;2023-07-31T10:35:19;3.70;;;1.80;;
2001;SDS011;1003;48.002;7.788;2023-07-31T10:37:47;3.93;;;2.17;;
2001;SDS011;1003;48.002;7.788;2023-07-31T10:40:15;5.00;;;2.00;;
2001;SDS011;1003;48.002;7.788;2023-07-31T10:42:46;3.23;;;1.80;;
2001;SDS011;1003;48.002;7.788;2023-07-31T10:45:24;3.57;;;2.00;;
2001;SDS011;1003;48.002;7.788;2023-07-31T10:47:58;3.93;;;1.83;;
2001;SDS011;1003;48.002;7.788;2023-07-31T10:50:28;3.63;;;1.90;;
2001;SDS011;1003;48.002;7.788;2023-07-31T10:52:58;2.93;;;1.67;;
2001;SDS011;1003;48.002;7.788;2023-07-31T10:55:27;3.27;;;1.80;;
2001;SDS011;1003;48.002;7.788;2023-07-31T10:57:58;2.90;;;1.70;;
2001;SDS011;1003;48.002;7.788;2023-07-31T11:00:36;3.67;;;1.80;;
2001;SDS011;1003;48.002;7.788;2023-07-31T11:03:05;5.33;;;1.87;;
2001;SDS011;1003;48.002;7.788;2023-07-31T11:05:45;4.07;;;1.90;;
2001;SDS011;1003;48.002;7.788;2023-07-31T11:08:19;4.13;;;2.00;;
2001;SDS011;1003;48.002;7.788;2023-07-31T11:10:49;3.33;;;1.63;;
2001;SDS011;1003;48.002;7.788;2023-07-31T11:13:19;3.00;;;1.93;;
2001;SDS011;1003;48.002;7.788;2023-07-31T11:15:47;2.93;;;2.10;;
2001;SDS011;1003;48.002;7.788;2023-07-31T11:18:14;3.80;;;1.90;;
2001;SDS011;1003;48.002;7.788;2023-07-31T11:20:42;3.57;;;1.83;;
2001;SDS011;1003;48.002;7.788;2023-07-31T11:23:09;3.00;;;1.73;;
2001;SDS011;1003;48.002;7.788;2023-07-31T11:25:37;3.17;;;1.70;;
2001;SDS011;1003;48.002;7.788;2023-07-31T11:28:07;5.37;;;1.67;;
2001;SDS011;1003;48.002;7.788;2023-07-31T11:30:36;3.07;;;1.90;;
2001;SDS011;1003;48.002;7.788;2023-07-31T11:33:06;3.20;;;1.70;;
2001;SDS011;1003;48.002;7.788;2023-07-31T11:35:35;3.77;;;1.90;;
2001;SDS011;1003;48.002;7.788;2023-07-31T11:38:09;2.63;;;1.80;;
2001;SDS011;1003;48.002;7.788;2023-07-31T11:40:40;2.67;;;1.83;;
2001;SDS011;1003;48.002;7.788;2023-07-31T11:43:09;2.80;;;1.87;;
2001;SDS011;1003;48.002;7.788;2023-07-31T11:45:41;3.97;;;1.90;;
2001;SDS011;1003;48.002;7.788;2023-07-31T11:48:19;3.50;;;1.80;;
2001;SDS011;1003;48.002;7.788;2023-07-31T11:50:47;3.23;;;2.10;;
2001;SDS011;1003;48.002;7.788;2023-07-31T11:53:17;2.60;;;1.63;;
2001;SDS011;1003;48.002;7.788;2023-07-31T11:55:49;3.90;;;1.70;;
2001;SDS011;1003;48.002;7.788;2023-07-31T11:58:17;3.00;;;1.70;;
2001;SDS011;1003;48.002;7.788;2023-07-31T12:00:45;2.80;;;1.70;;
2001;SDS011;1003;48.002;7.788;2023-07-31T12:03:13;2.93;;;1.73;;
2001;SDS011;1003;48.002;7.788;2023-07-31T12:05:42;1.93;;;1.60;;
2001;SDS011;1003;48.002;7.788;2023-07-31T12:08:09;4.13;;;1.90;;
2001;SDS011;1003;48.002;7.788;2023-07-31T12:10:38;1.70;;;1.60;;
2001;SDS011;1003;48.002;7.788;2023-07-31T12:13:07;3.67;;;1.70;;
2001;SDS011;1003;48.002;7.788;2023-07-31T12:15:39;2.90;;;1.83;;
2001;SDS011;1003;48.002;7.788;2023-07-31T12:18:08;4.20;;;1.90;;
2001;SDS011;1003;48.002;7.788;2023-07-31T12:20:42;2.23;;;1.80;;
2001;SDS011;1003;48.002;7.788;2023-07-31T12:23:14;1.87;;;1.70;;
2001;SDS011;1003;48.002;7.788;2023-07-31T12:25:43;3.23;;;2.00;;
2001;SDS011;1003;48.002;7.788;2023-07-31T12:28:10;2.77;;;1.80;;
2001;SDS011;1003;48.002;7.788;2023-07-31T12:30:38;2.53;;;2.00;;
2001;SDS011;1003;48.002;7.788;2023-07-31T12:33:11;3.53;;;2.10;;
2001;SDS011;1003;48.002;7.788;2023-07-31T12:35:41;3.90;;;2.07;;
2001;SDS011;1003;48.002;7.788;2023-07-31T12:38:13;3.90;;;2.20;;
2001;SDS011;1003;48.002;7.788;2023-07-31T12:40:40;4.50;;;2.20;;
2001;SDS011;1003;48.002;7.788;2023-07-31T12:43:08;4.40;;;2.00;;
2001;SDS011;1003;48.002;7.788;2023-07-31T12:45:36;3.23;;;2.10;;
2001;SDS011;1003;48.002;7.788;2023-07-31T12:48:03;4.00;;;2.40;;
2001;SDS011;1003;48.002;7.788;2023-07-31T12:50:30;3.07;;;1.90;;
2001;SDS011;1003;48.002;7.788;2023-07-31T12:52:59;3.03;;;2.23;;
2001;SDS011;1003;48.002;7.788;2023-07-31T12:55:26;5.53;;;2.30;;
2001;SDS011;1003;48.002;7.788;2023-07-31T12:57:53;3.20;;;2.10;;
2001;SDS011;1003;48.002;7.788;2023-07-31T13:00:20;3.20;;;2.10;;
2001;SDS011;1003;48.002;7.788;2023-07-31T13:02:48;2.63;;;2.10;;
2001;SDS011;1003;48.002;7.788;2023-07-31T13:05:15;2.73;;;2.10;;
2001;SDS011;1003;48.002;7.788;2023-07-31T13:07:42;3.87;;;2.23;;
2001;SDS011;1003;48.002;7.788;2023-07-31T13:10:10;3.73;;;2.00;;
2001;SDS011;1003;48.002;7.788;2023-07-31T13:12:38;3.03;;;2.03;;
2001;SDS011;1003;48.002;7.788;2023-07-31T13:15:06;7.50;;;2.23;;
2001;SDS011;1003;48.002;7.788;2023-07-31T13:17:34;3.70;;;2.10;;
2001;SDS011;1003;48.002;7.788;2023-07-31T13:20:03;4.17;;;2.20;;
2001;SDS011;1003;48.002;7.788;2023-07-31T13:22:31;3.40;;;2.20;;
2001;SDS011;1003;48.002;7.788;2023-07-31T13:24:58;2.93;;;1.90;;
2001;SDS011;1003;48.002;7.788;2023-07-31T13:27:26;4.47;;;2.20;;
2001;SDS011;1003;48.002;7.788;2023-07-31T13:29:53;4.37;;;2.30;;
2001;SDS011;1003;48.002;7.788;2023-07-31T13:32:20;2.60;;;2.03;;
2001;SDS011;1003;48.002;7.788;2023-07-31T13:34:48;2.47;;;2.10;;
2001;SDS011;1003;48.002;7.788;2023-07-31T13:37:15;5.57;;;2.10;;
2001;SDS011;1003;48.002;7.788;2023-07-31T13:39:42;4.33;;;1.90;;
2001;SDS011;1003;48.002;7.788;2023-07-31T13:42:09;4.13;;;2.03;;
2001;SDS011;1003;48.002;7.788;2023-07-31T13:44:38;3.33;;;2.10;;
2001;SDS011;1003;48.002;7.788;2023-07-31T13:47:06;4.57;;;1.90;;
2001;SDS011;1003;48.002;7.788;2023-07-31T13:49:34;4.83;;;2.20;;
2001;SDS011;1003;48.002;7.788;2023-07-31T13:52:04;3.80;;;2.10;;
2001;SDS011;1003;48.002;7.788;2023-07-31T13:54:32;2.93;;;2.13;;
2001;SDS011;1003;48.002;7.788;2023-07-31T13:56:59;4.20;;;2.30;;
2001;SDS011;1003;48.002;7.788;2023-07-31T13:59:26;4.43;;;2.50;;
2001;SDS011;1003;48.002;7.788;2023-07-31T14:01:55;3.80;;;2.17;;
2001;SDS011;1003;48.002;7.788;2023-07-31T14:04:22;2.97;;;2.30;;
2001;SDS011;1003;48.002;7.788;2023-07-31T14:06:49;2.77;;;2.07;;
2001;SDS011;1003;48.002;7.788;2023-07-31T14:09:16;3.20;;;2.10;;
2001;SDS011;1003;48.002;7.788;2023-07-31T14:11:43;3.10;;;2.20;;
2001;SDS011;1003;48.002;7.788;2023-07-31T14:14:10;3.30;;;2.10;;
2001;SDS011;1003;48.002;7.788;2023-07-31T14:16:38;2.90;;;2.00;;
2001;SDS011;1003;48.002;7.788;2023-07-31T14:19:07;3.93;;;2.00;;
2001;SDS011;1003;48.002;7.788;2023-07-31T14:21:34;2.43;;;1.90;;
2001;SDS011;1003;48.002;7.788;2023-07-31T14:24:02;3.00;;;2.13;;
2001;SDS011;1003;48.002;7.788;2023-07-31T14:26:29;2.87;;;1.97;;
2001;SDS011;1003;48.002;7.788;2023-07-31T14:28:56;3.27;;;1.90;;
2001;SDS011;1003;48.002;7.788;2023-07-31T14:31:23;3.47;;;2.10;;
2001;SDS011;1003;48.002;7.788;2023-07-31T14:33:51;2.70;;;2.10;;
2001;SDS011;1003;48.002;7.788;2023-07-31T14:36:19;2.60;;;1.90;;
2001;SDS011;1003;48.002;7.788;2023-07-31T14:38:46;4.50;;;2.00;;
2001;SDS011;1003;48.002;7.788;2023-07-31T14:41:13;2.77;;;1.97;;
2001;SDS011;1003;48.002;7.788;2023-07-31T14:43:40;4.13;;;2.20;;
2001;SDS011;1003;48.002;7.788;2023-07-31T14:46:07;2.43;;;1.87;;
2001;SDS011;1003;48.002;7.788;2023-07-31T14:48:34;2.63;;;2.10;;
2001;SDS011;1003;48.002;7.788;2023-07-31T14:51:01;3.73;;;1.97;;
2001;SDS011;1003;48.002;7.788;2023-07-31T14:53:30;2.27;;;1.90;;
2001;SDS011;1003;48.002;7.788;2023-07-31T14:55:57;4.17;;;1.90;;
2001;SDS011;1003;48.002;7.788;2023-07-31T14:58:24;3.43;;;2.20;;
2001;SDS011;1003;48.002;7.788;2023-07-31T15:00:51;3.87;;;1.90;;
2001;SDS011;1003;48.002;7.788;2023-07-31T15:03:19;2.40;;;1.80;;
2001;SDS011;1003;48.002;7.788;2023-07-31T15:05:46;2.27;;;1.70;;
2001;SDS011;1003;48.002;7.788;2023-07-31T15:08:13;4.03;;;2.10;;
2001;SDS011;1003;48.002;7.788;2023-07-31T15:10:42;3.70;;;1.97;;
2001;SDS011;1003;48.002;7.788;2023-07-31T15:13:10;2.50;;;1.77;;
2001;SDS011;1003;48.002;7.788;2023-07-31T15:15:38;2.80;;;2.10;;
2001;SDS011;1003;48.002;7.788;2023-07-31T15:18:05;4.87;;;2.10;;
2001;SDS011;1003;48.002;7.788;2023-07-31T15:20:33;3.67;;;2.40;;
2001;SDS011;1003;48.002;7.788;2023-07-31T15:23:00;6.37;;;3.50;;